Time;durP1;ratioP1;P1;durP2;ratioP2;P2;SDS_P1;SDS_P2;PMS_P1;PMS_P2;Temp;Humidity;BMP_temperature;BMP_pressure;BME280_temperature;BME280_humidity;BME280_pressure;Samples;Min_cycle;Max_cycle;Signal;HPM_P1;HPM_P2
2022/02/25 00:00:22;;;;;;;1.53;0.90;;;4.80;99.90;;;;;;5055994;28;20744;-65
2022/02/25 00:02:48;;;;;;;1.03;0.80;;;4.90;99.90;;;;;;5055649;28;20165;-66
2022/02/25 00:05:14;;;;;;;0.70;0.70;;;4.90;99.90;;;;;;5055271;28;20197;-65
2022/02/25 00:07:40;;;;;;;0.63;0.60;;;4.80;99.90;;;;;;5055791;28;20527;-67
2022/02/25 00:10:06;;;;;;;0.50;0.50;;;4.70;99.90;;;;;;5055636;28;20614;-66
2022/02/25 00:12:31;;;;;;;0.57;0.57;;;4.70;99.90;;;;;;5054019;28;20185;-66
2022/02/25 00:14:57;;;;;;;0.60;0.60;;;4.70;99.90;;;;;;5054867;28;20209;-64
2022/02/25 00:17:23;;;;;;;4.30;0.67;;;4.70;99.90;;;;;;5055513;28;20205;-65
2022/02/25 00:19:48;;;;;;;0.93;0.60;;;4.70;99.90;;;;;;5055507;28;20264;-64
2022/02/25 00:22:14;;;;;;;1.10;0.80;;;4.70;99.90;;;;;;5054090;28;20174;-65
2022/02/25 00:24:40;;;;;;;0.70;0.70;;;4.70;99.90;;;;;;5054802;28;20193;-65
2022/02/25 00:27:05;;;;;;;0.67;0.43;;;4.70;99.90;;;;;;5055580;28;20574;-66
2022/02/25 00:29:31;;;;;;;0.70;0.70;;;4.60;99.90;;;;;;5055497;28;20212;-65
2022/02/25 00:31:57;;;;;;;1.17;0.50;;;4.60;99.90;;;;;;5054068;28;20652;-65
2022/02/25 00:34:22;;;;;;;0.80;0.80;;;4.50;99.90;;;;;;5054012;28;20190;-64
2022/02/25 00:36:48;;;;;;;0.50;0.50;;;4.50;99.90;;;;;;5055012;28;20170;-65
2022/02/25 00:39:13;;;;;;;0.90;0.67;;;4.40;99.90;;;;;;5055113;28;20559;-66
2022/02/25 00:41:39;;;;;;;0.73;0.60;;;4.30;99.90;;;;;;5055354;28;20166;-65
2022/02/25 00:44:05;;;;;;;0.50;0.50;;;4.30;99.90;;;;;;5054375;28;20189;-65
2022/02/25 00:46:31;;;;;;;1.03;1.03;;;4.20;99.90;;;;;;5053769;28;20647;-66
2022/02/25 00:48:56;;;;;;;0.77;0.77;;;4.20;99.90;;;;;;5055153;28;20415;-66
2022/02/25 00:51:22;;;;;;;0.50;0.50;;;4.10;99.90;;;;;;5054850;28;20218;-66
2022/02/25 00:53:48;;;;;;;7.60;1.87;;;4.10;99.90;;;;;;5054453;28;20223;-65
2022/02/25 00:56:14;;;;;;;1.25;1.23;;;4.00;99.90;;;;;;5054885;28;20225;-64
2022/02/25 00:58:39;;;;;;;0.83;0.83;;;4.00;99.90;;;;;;5054996;28;20598;-64
2022/02/25 01:01:05;;;;;;;0.80;0.80;;;3.90;99.90;;;;;;5053472;28;20256;-65
2022/02/25 01:03:31;;;;;;;0.93;0.93;;;3.90;99.90;;;;;;5157175;22;20651;-65
2022/02/25 01:05:56;;;;;;;0.50;0.50;;;3.90;99.90;;;;;;5034591;28;20273;-66
2022/02/25 01:08:22;;;;;;;0.93;0.93;;;3.80;99.90;;;;;;5034879;28;20170;-65
2022/02/25 01:10:47;;;;;;;1.00;1.00;;;3.80;99.90;;;;;;5033408;28;20228;-67
2022/02/25 01:13:13;;;;;;;1.17;1.07;;;3.70;99.90;;;;;;5033033;28;20182;-65
2022/02/25 01:15:39;;;;;;;0.70;0.70;;;3.70;99.90;;;;;;5034260;28;20226;-65
2022/02/25 01:18:06;;;;;;;1.73;1.13;;;3.70;99.90;;;;;;5034637;28;20578;-65
2022/02/25 01:20:31;;;;;;;1.63;1.52;;;3.60;99.90;;;;;;5034741;28;20299;-65
2022/02/25 01:22:57;;;;;;;3.73;1.23;;;3.60;99.90;;;;;;5033150;28;20178;-66
2022/02/25 01:25:23;;;;;;;1.03;1.03;;;3.60;99.90;;;;;;5034293;28;20209;-67
2022/02/25 01:27:49;;;;;;;1.60;1.20;;;3.50;99.90;;;;;;5035899;28;20178;-67
2022/02/25 01:30:14;;;;;;;2.10;1.27;;;3.50;99.90;;;;;;5036531;28;20409;-65
2022/02/25 01:32:41;;;;;;;5.00;1.07;;;3.60;99.90;;;;;;5035170;28;20193;-66
2022/02/25 01:35:07;;;;;;;1.75;1.65;;;3.60;99.90;;;;;;5035390;28;20448;-65
2022/02/25 01:37:32;;;;;;;1.05;0.95;;;3.60;99.90;;;;;;5037953;28;20166;-66
2022/02/25 01:39:58;;;;;;;0.83;0.70;;;3.50;99.90;;;;;;5037172;28;20173;-65
2022/02/25 01:42:24;;;;;;;8.53;1.03;;;3.50;99.90;;;;;;5035395;28;20260;-65
2022/02/25 01:44:50;;;;;;;0.90;0.85;;;3.50;99.90;;;;;;5034777;28;20438;-66
2022/02/25 01:47:16;;;;;;;0.80;0.63;;;3.40;99.90;;;;;;5034422;28;20173;-66
2022/02/25 01:49:43;;;;;;;2.00;1.20;;;3.40;99.90;;;;;;5036255;28;20412;-66
2022/02/25 01:52:17;;;;;;;1.90;0.80;;;3.40;99.90;;;;;;5034538;28;20447;-66
2022/02/25 01:54:44;;;;;;;2.03;1.65;;;3.30;99.90;;;;;;5035057;28;20273;-65
2022/02/25 01:57:11;;;;;;;0.70;0.70;;;3.30;99.90;;;;;;5033974;28;20527;-66
2022/02/25 01:59:38;;;;;;;0.80;0.77;;;3.30;99.90;;;;;;5034841;28;20189;-65
2022/02/25 02:02:05;;;;;;;2.97;1.02;;;3.20;99.90;;;;;;5035126;28;20548;-65
2022/02/25 02:04:30;;;;;;;0.73;0.63;;;3.20;99.90;;;;;;5034289;28;20197;-65
2022/02/25 02:06:56;;;;;;;2.30;1.20;;;3.20;99.90;;;;;;5034569;28;20260;-66
2022/02/25 02:09:23;;;;;;;0.53;0.47;;;3.10;99.90;;;;;;5034759;28;20437;-68
2022/02/25 02:11:51;;;;;;;0.70;0.70;;;3.10;99.90;;;;;;5034552;28;20425;-65
2022/02/25 02:14:19;;;;;;;0.65;0.40;;;3.10;99.90;;;;;;5033818;28;20277;-65
2022/02/25 02:16:46;;;;;;;0.68;0.68;;;3.00;99.90;;;;;;5033724;28;20735;-67
2022/02/25 02:19:13;;;;;;;2.30;0.93;;;3.00;99.90;;;;;;5033748;28;20178;-66
2022/02/25 02:21:45;;;;;;;1.35;1.25;;;2.90;99.90;;;;;;5032602;28;20650;-66
2022/02/25 02:24:12;;;;;;;1.50;1.40;;;2.90;99.90;;;;;;5033149;28;20205;-65
2022/02/25 02:26:38;;;;;;;13.38;1.67;;;2.90;99.90;;;;;;5032179;28;20174;-67
2022/02/25 02:29:06;;;;;;;3.90;0.90;;;2.90;99.90;;;;;;5033428;28;20253;-65
2022/02/25 02:31:32;;;;;;;10.85;0.80;;;2.90;99.90;;;;;;5032015;28;20178;-65
2022/02/25 02:33:57;;;;;;;0.57;0.57;;;2.80;99.90;;;;;;5032784;28;20173;-64
2022/02/25 02:36:23;;;;;;;0.60;0.60;;;2.80;99.90;;;;;;5033094;28;20546;-65
2022/02/25 02:38:49;;;;;;;0.60;0.60;;;2.80;99.90;;;;;;5033311;28;20193;-65
2022/02/25 02:41:15;;;;;;;0.40;0.40;;;2.80;99.90;;;;;;5033099;28;20647;-68
2022/02/25 02:43:41;;;;;;;0.75;0.60;;;2.80;99.90;;;;;;5033208;28;20636;-67
2022/02/25 02:46:07;;;;;;;3.42;1.23;;;2.70;99.90;;;;;;5033169;28;20224;-65
2022/02/25 02:48:33;;;;;;;0.60;0.60;;;2.70;99.90;;;;;;5032003;28;20178;-66
2022/02/25 02:51:00;;;;;;;0.60;0.60;;;2.70;99.90;;;;;;5033416;28;20265;-64
2022/02/25 02:53:25;;;;;;;0.60;0.60;;;2.70;99.90;;;;;;5032920;28;20597;-65
2022/02/25 02:55:51;;;;;;;0.60;0.60;;;2.60;99.90;;;;;;5033810;28;20292;-66
2022/02/25 02:58:17;;;;;;;12.30;1.07;;;2.60;99.90;;;;;;5035846;28;20283;-65
2022/02/25 03:00:45;;;;;;;1.00;0.88;;;2.60;99.90;;;;;;5037061;28;20174;-68
2022/02/25 03:03:11;;;;;;;1.70;0.57;;;2.60;99.90;;;;;;5036711;28;20173;-67
2022/02/25 03:05:39;;;;;;;0.80;0.80;;;2.60;99.90;;;;;;5036900;28;20206;-65
2022/02/25 03:08:05;;;;;;;0.75;0.75;;;2.60;99.90;;;;;;5036995;28;20178;-66
2022/02/25 03:10:35;;;;;;;1.05;0.68;;;2.60;99.90;;;;;;5035566;28;20697;-66
2022/02/25 03:13:02;;;;;;;0.50;0.50;;;2.50;99.90;;;;;;5036659;28;20173;-64
2022/02/25 03:15:28;;;;;;;0.40;0.40;;;2.50;99.90;;;;;;5036412;28;20218;-65
2022/02/25 03:17:54;;;;;;;1.23;0.73;;;2.50;99.90;;;;;;5036516;28;20197;-65
2022/02/25 03:20:22;;;;;;;0.45;0.45;;;2.50;99.90;;;;;;5036703;28;20247;-68
2022/02/25 03:22:48;;;;;;;1.40;0.75;;;2.50;99.90;;;;;;5036410;28;20620;-65
2022/02/25 03:25:14;;;;;;;10.95;0.88;;;2.60;99.90;;;;;;5036069;28;20666;-67
2022/02/25 03:27:40;;;;;;;0.93;0.50;;;2.60;99.90;;;;;;5036460;28;20635;-65
2022/02/25 03:30:08;;;;;;;2.15;0.60;;;2.70;99.90;;;;;;5036355;28;20264;-65
2022/02/25 03:32:34;;;;;;;0.70;0.70;;;2.60;99.90;;;;;;5036343;28;20170;-65
2022/02/25 03:35:00;;;;;;;1.70;1.20;;;2.60;99.90;;;;;;5035725;28;20209;-65
2022/02/25 03:37:29;;;;;;;0.67;0.67;;;2.70;99.90;;;;;;5036255;28;20602;-64
2022/02/25 03:39:56;;;;;;;0.77;0.52;;;2.60;99.90;;;;;;5034671;28;20416;-65
2022/02/25 03:42:22;;;;;;;0.65;0.65;;;2.60;99.90;;;;;;5036056;28;20494;-64
2022/02/25 03:44:48;;;;;;;0.40;0.40;;;2.60;99.90;;;;;;5035518;28;20243;-66
2022/02/25 03:47:14;;;;;;;0.50;0.50;;;2.60;99.90;;;;;;5035951;28;20505;-64
2022/02/25 03:49:39;;;;;;;2.67;0.67;;;2.60;99.90;;;;;;5035868;28;20181;-64
2022/02/25 03:52:06;;;;;;;0.53;0.53;;;2.60;99.90;;;;;;5035708;28;20193;-64
2022/02/25 03:54:31;;;;;;;1.35;0.80;;;2.50;99.90;;;;;;5035343;28;20432;-64
2022/02/25 03:56:57;;;;;;;0.80;0.57;;;2.60;99.90;;;;;;5034657;28;20527;-64
2022/02/25 03:59:23;;;;;;;0.73;0.73;;;2.50;99.90;;;;;;5035989;28;20169;-65
2022/02/25 04:01:52;;;;;;;1.33;1.23;;;2.50;99.90;;;;;;5034715;28;20721;-65
2022/02/25 04:04:23;;;;;;;2.35;0.93;;;2.40;99.90;;;;;;5034030;28;20206;-64
2022/02/25 04:06:49;;;;;;;1.15;0.85;;;2.40;99.90;;;;;;5034550;28;20528;-65
2022/02/25 04:09:18;;;;;;;2.90;0.90;;;2.40;99.90;;;;;;5034871;28;20201;-65
2022/02/25 04:11:47;;;;;;;0.70;0.70;;;2.30;99.90;;;;;;5035625;28;20190;-64
2022/02/25 04:14:19;;;;;;;0.38;0.38;;;2.30;99.90;;;;;;5035269;28;20555;-64
2022/02/25 04:16:48;;;;;;;1.10;0.95;;;2.30;99.90;;;;;;5035693;28;20198;-64
2022/02/25 04:19:15;;;;;;;3.08;1.45;;;2.30;99.90;;;;;;5035568;28;20174;-63
2022/02/25 04:21:41;;;;;;;0.50;0.50;;;2.30;99.90;;;;;;5035474;28;20180;-64
2022/02/25 04:24:08;;;;;;;0.70;0.70;;;2.30;99.90;;;;;;5035162;28;20193;-66
2022/02/25 04:26:33;;;;;;;0.80;0.80;;;2.40;99.90;;;;;;5035573;28;20594;-65
2022/02/25 04:28:59;;;;;;;1.33;0.80;;;2.40;99.90;;;;;;5035476;28;20206;-65
2022/02/25 04:31:25;;;;;;;0.63;0.63;;;2.50;99.90;;;;;;5035491;28;20236;-65
2022/02/25 04:33:52;;;;;;;0.60;0.60;;;2.60;99.90;;;;;;5034701;28;20174;-64
2022/02/25 04:36:20;;;;;;;0.85;0.85;;;2.70;99.90;;;;;;5035130;28;20193;-65
2022/02/25 04:38:49;;;;;;;0.70;0.70;;;2.80;99.90;;;;;;5035394;28;20196;-64
2022/02/25 04:41:15;;;;;;;0.70;0.70;;;2.90;99.90;;;;;;5035229;28;20181;-63
2022/02/25 04:43:41;;;;;;;4.80;0.93;;;3.00;99.90;;;;;;5035136;28;20166;-65
2022/02/25 04:46:15;;;;;;;2.42;1.52;;;3.10;99.90;;;;;;5034667;28;20652;-64
2022/02/25 04:48:41;;;;;;;3.85;0.88;;;3.10;99.90;;;;;;5034869;28;20202;-64
2022/02/25 04:51:06;;;;;;;0.90;0.80;;;3.20;99.90;;;;;;5034807;28;20251;-64
2022/02/25 04:53:32;;;;;;;1.10;1.10;;;3.30;99.90;;;;;;5033170;28;20260;-64
2022/02/25 04:55:58;;;;;;;1.13;0.50;;;3.30;99.90;;;;;;5034531;28;20444;-65
2022/02/25 04:58:23;;;;;;;1.00;1.00;;;3.30;99.90;;;;;;5034653;28;20170;-64
2022/02/25 05:00:49;;;;;;;0.50;0.50;;;3.40;99.90;;;;;;5033276;28;20228;-65
2022/02/25 05:03:15;;;;;;;0.67;0.53;;;3.40;99.90;;;;;;5033020;28;20216;-65
2022/02/25 05:05:41;;;;;;;11.00;0.90;;;3.40;99.90;;;;;;5033095;28;20297;-65
2022/02/25 05:08:06;;;;;;;1.67;0.87;;;3.40;99.90;;;;;;5034821;28;20178;-66
2022/02/25 05:10:32;;;;;;;3.17;0.93;;;3.40;99.90;;;;;;5034582;28;20497;-64
2022/02/25 05:12:57;;;;;;;0.70;0.63;;;3.40;99.90;;;;;;5032925;28;20174;-65
2022/02/25 05:20:53;;;;;;;0.60;0.60;;;3.50;99.90;;;;;;5034113;28;20272;-65
2022/02/25 05:23:19;;;;;;;1.63;0.88;;;3.50;99.90;;;;;;5033766;28;20158;-64
2022/02/25 05:25:45;;;;;;;0.68;0.68;;;3.60;99.90;;;;;;5034044;28;20193;-65
2022/02/25 05:28:11;;;;;;;0.90;0.70;;;3.50;99.90;;;;;;5034315;28;20180;-65
2022/02/25 05:30:37;;;;;;;0.87;0.87;;;3.60;99.90;;;;;;5032349;28;20417;-62
2022/02/25 05:33:04;;;;;;;0.90;0.90;;;3.60;99.90;;;;;;5033787;28;20499;-65
2022/02/25 05:35:29;;;;;;;0.50;0.50;;;3.60;99.90;;;;;;5033865;28;20290;-64
2022/02/25 05:37:55;;;;;;;0.80;0.80;;;3.70;99.90;;;;;;5034043;28;20194;-66
2022/02/25 05:40:21;;;;;;;2.30;0.70;;;3.60;99.90;;;;;;5033872;28;20324;-65
2022/02/25 05:42:48;;;;;;;1.98;0.65;;;3.70;99.90;;;;;;5034102;28;20211;-64
2022/02/25 05:45:15;;;;;;;1.63;0.90;;;3.70;99.90;;;;;;5033014;28;20194;-65
2022/02/25 05:47:41;;;;;;;0.70;0.70;;;3.70;99.90;;;;;;5033603;28;20181;-64
2022/02/25 05:50:12;;;;;;;1.95;1.42;;;3.70;99.90;;;;;;5033577;28;20178;-64
2022/02/25 05:52:38;;;;;;;0.80;0.80;;;3.80;99.90;;;;;;5033593;28;20176;-63
2022/02/25 05:55:05;;;;;;;2.00;1.30;;;3.80;99.90;;;;;;5033095;28;20656;-64
2022/02/25 05:57:30;;;;;;;1.30;1.23;;;3.80;99.90;;;;;;5033544;28;20411;-64
2022/02/25 05:59:56;;;;;;;4.10;1.00;;;3.80;99.90;;;;;;5033579;28;20583;-64
2022/02/25 06:02:21;;;;;;;4.57;1.57;;;3.80;99.90;;;;;;5032480;28;20640;-63
2022/02/25 06:04:47;;;;;;;0.80;0.80;;;3.80;99.90;;;;;;5032963;28;20619;-64
2022/02/25 06:07:13;;;;;;;7.00;2.50;;;3.90;99.90;;;;;;5033453;28;20202;-64
2022/02/25 06:09:38;;;;;;;1.13;1.13;;;3.90;99.90;;;;;;5033446;28;20166;-64
2022/02/25 06:12:05;;;;;;;0.70;0.70;;;3.80;99.90;;;;;;5033871;28;20193;-63
2022/02/25 06:14:31;;;;;;;4.63;1.58;;;3.80;99.90;;;;;;5032849;28;20524;-65
2022/02/25 06:16:56;;;;;;;0.50;0.50;;;3.80;99.90;;;;;;5031937;28;20261;-67
2022/02/25 06:19:22;;;;;;;0.70;0.53;;;3.80;99.90;;;;;;5033264;28;20252;-66
2022/02/25 06:21:48;;;;;;;0.50;0.47;;;3.70;99.90;;;;;;5033445;28;20251;-66
2022/02/25 06:24:15;;;;;;;2.38;0.57;;;3.70;99.90;;;;;;5032925;28;20186;-69
2022/02/25 06:26:40;;;;;;;0.50;0.50;;;3.60;99.90;;;;;;5033282;28;20185;-69
2022/02/25 06:29:07;;;;;;;0.93;0.93;;;3.50;99.90;;;;;;5033295;28;20529;-66
2022/02/25 06:31:33;;;;;;;0.60;0.60;;;3.40;99.90;;;;;;5032491;28;20170;-68
2022/02/25 06:33:58;;;;;;;20.73;0.97;;;3.40;99.90;;;;;;5032661;28;20200;-65
2022/02/25 06:36:24;;;;;;;2.47;2.10;;;3.30;99.90;;;;;;5032925;28;20209;-69
2022/02/25 06:38:50;;;;;;;7.67;1.10;;;3.30;99.90;;;;;;5033144;28;20173;-70
2022/02/25 06:41:18;;;;;;;1.23;0.90;;;3.30;99.90;;;;;;5033148;28;20178;-65
2022/02/25 06:43:43;;;;;;;0.75;0.75;;;3.20;99.90;;;;;;5032651;28;20181;-67
2022/02/25 06:46:11;;;;;;;5.10;1.00;;;3.20;99.90;;;;;;5033106;28;20193;-67
2022/02/25 06:48:38;;;;;;;0.55;0.55;;;3.20;99.90;;;;;;5032915;28;20182;-62
2022/02/25 06:51:04;;;;;;;2.40;0.95;;;3.10;99.90;;;;;;5033167;28;20186;-64
2022/02/25 06:53:29;;;;;;;1.43;0.83;;;3.20;99.90;;;;;;5032732;28;20250;-64
2022/02/25 06:55:55;;;;;;;0.93;0.83;;;3.30;99.90;;;;;;5031620;28;20857;-63
2022/02/25 06:58:21;;;;;;;2.97;0.60;;;3.60;99.90;;;;;;5033054;28;20166;-63
2022/02/25 07:00:47;;;;;;;2.43;1.10;;;3.80;99.90;;;;;;5033108;28;20170;-63
2022/02/25 07:03:13;;;;;;;6.83;2.03;;;4.10;99.90;;;;;;5031129;28;20179;-63
2022/02/25 07:05:39;;;;;;;3.53;0.80;;;4.50;99.90;;;;;;5032368;28;20549;-63
2022/02/25 07:08:06;;;;;;;1.25;0.90;;;5.00;99.90;;;;;;5031456;28;20422;-63
2022/02/25 07:10:33;;;;;;;3.60;0.80;;;5.40;99.90;;;;;;5031611;28;20194;-64
2022/02/25 07:13:00;;;;;;;3.05;1.42;;;5.90;99.90;;;;;;5032753;28;20564;-63
2022/02/25 07:15:25;;;;;;;2.05;1.08;;;6.20;99.90;;;;;;5032242;28;20232;-63
2022/02/25 07:17:51;;;;;;;0.77;0.77;;;6.60;99.90;;;;;;5032877;28;20648;-64
2022/02/25 07:20:17;;;;;;;2.10;1.70;;;7.00;99.90;;;;;;5032827;28;20172;-65
2022/02/25 07:22:42;;;;;;;1.43;0.97;;;7.40;99.90;;;;;;5032771;28;20167;-68
2022/02/25 07:25:08;;;;;;;2.13;1.47;;;7.80;99.90;;;;;;5032451;28;20679;-64
2022/02/25 07:27:34;;;;;;;1.05;1.05;;;8.00;99.90;;;;;;5032818;28;20174;-65
2022/02/25 07:30:00;;;;;;;1.97;1.37;;;8.10;99.40;;;;;;5032507;28;20174;-66
2022/02/25 07:32:26;;;;;;;2.73;0.90;;;8.10;98.70;;;;;;5032787;28;20174;-65
2022/02/25 07:34:53;;;;;;;3.13;1.15;;;8.20;99.10;;;;;;5031998;28;20189;-64
2022/02/25 07:37:19;;;;;;;4.38;0.80;;;8.30;98.40;;;;;;5032624;28;20240;-66
2022/02/25 07:39:45;;;;;;;2.43;1.23;;;8.50;97.90;;;;;;5032737;28;20650;-65
2022/02/25 07:42:11;;;;;;;2.00;1.67;;;8.80;97.70;;;;;;5032708;28;20412;-64
2022/02/25 07:44:36;;;;;;;1.00;0.80;;;9.10;97.70;;;;;;5035156;28;20430;-65
2022/02/25 07:47:03;;;;;;;2.80;1.40;;;9.40;97.20;;;;;;5034950;28;20184;-64
2022/02/25 07:49:29;;;;;;;1.00;0.90;;;9.70;96.50;;;;;;5035721;28;20165;-65
2022/02/25 07:51:54;;;;;;;3.80;2.20;;;10.00;95.20;;;;;;5035806;28;20539;-64
2022/02/25 07:54:20;;;;;;;4.03;1.23;;;10.10;95.00;;;;;;5035482;28;20185;-65
2022/02/25 07:56:46;;;;;;;2.63;1.20;;;10.20;94.70;;;;;;5035665;28;20225;-64
2022/02/25 07:59:13;;;;;;;1.13;1.13;;;10.40;94.30;;;;;;5035680;28;20906;-64
2022/02/25 08:01:40;;;;;;;1.23;1.00;;;10.60;93.80;;;;;;5034459;28;20596;-65
2022/02/25 08:04:07;;;;;;;1.13;0.93;;;10.80;93.30;;;;;;5117112;22;20501;-65
2022/02/25 08:06:33;;;;;;;0.87;0.87;;;11.30;93.50;;;;;;5055387;28;20401;-65
2022/02/25 08:08:58;;;;;;;2.40;0.83;;;11.80;92.40;;;;;;5055676;28;20410;-66
2022/02/25 08:11:24;;;;;;;2.83;1.83;;;12.50;91.10;;;;;;5055418;28;20409;-65
2022/02/25 08:13:50;;;;;;;1.00;0.90;;;13.20;89.70;;;;;;5055024;28;20177;-65
2022/02/25 08:16:15;;;;;;;1.33;0.80;;;13.70;87.00;;;;;;5055319;28;20201;-65
2022/02/25 08:18:41;;;;;;;1.43;0.80;;;13.70;86.30;;;;;;5055340;28;20169;-66
2022/02/25 08:21:07;;;;;;;0.90;0.50;;;13.90;84.10;;;;;;5046288;28;20197;-66
2022/02/25 08:23:32;;;;;;;3.10;1.20;;;14.40;85.10;;;;;;5043816;28;20181;-65
2022/02/25 08:25:59;;;;;;;1.83;1.00;;;15.00;81.70;;;;;;5048097;28;20586;-65
2022/02/25 08:28:25;;;;;;;1.30;0.73;;;15.30;78.90;;;;;;5042912;28;20383;-66
2022/02/25 08:30:51;;;;;;;1.80;1.00;;;15.80;77.20;;;;;;5037342;28;20409;-66
2022/02/25 08:33:17;;;;;;;0.93;0.93;;;15.50;74.60;;;;;;5045845;28;20174;-66
2022/02/25 08:35:43;;;;;;;1.27;1.20;;;14.40;74.70;;;;;;5054975;28;20948;-66
2022/02/25 08:38:09;;;;;;;4.10;0.93;;;13.10;76.80;;;;;;5051326;28;20170;-68
2022/02/25 08:40:37;;;;;;;2.60;0.77;;;12.50;80.80;;;;;;5035202;28;20754;-68
2022/02/25 08:43:03;;;;;;;2.17;0.97;;;12.80;81.20;;;;;;5034941;28;21075;-68
2022/02/25 08:45:29;;;;;;;1.43;1.33;;;13.40;80.80;;;;;;5033497;28;20441;-68
2022/02/25 08:47:57;;;;;;;0.80;0.80;;;14.00;79.20;;;;;;5033586;28;20403;-67
2022/02/25 08:50:24;;;;;;;0.80;0.80;;;14.50;78.60;;;;;;5035039;28;20449;-68
2022/02/25 08:52:53;;;;;;;2.10;1.90;;;15.30;77.10;;;;;;5034879;28;20406;-69
2022/02/25 08:55:21;;;;;;;1.27;0.80;;;15.90;75.30;;;;;;5033646;28;20452;-69
2022/02/25 08:57:48;;;;;;;0.90;0.90;;;16.50;74.50;;;;;;5034550;28;20413;-68
2022/02/25 09:00:23;;;;;;;2.97;1.20;;;17.00;72.50;;;;;;5033316;28;20426;-68
2022/02/25 09:02:50;;;;;;;1.70;1.07;;;17.40;69.40;;;;;;5049783;28;20453;-68
2022/02/25 09:05:17;;;;;;;1.40;0.97;;;17.70;67.60;;;;;;5033903;28;20491;-66
2022/02/25 09:07:43;;;;;;;0.93;0.60;;;17.80;66.50;;;;;;5034628;28;20410;-68
2022/02/25 09:10:11;;;;;;;1.27;0.70;;;17.70;66.80;;;;;;5034439;28;20722;-69
2022/02/25 09:12:36;;;;;;;1.40;0.80;;;18.10;66.20;;;;;;5034281;28;20395;-68
2022/02/25 09:15:08;;;;;;;4.83;1.03;;;18.10;65.00;;;;;;5034089;28;20424;-68
2022/02/25 09:17:34;;;;;;;3.90;1.13;;;18.20;65.30;;;;;;5034260;28;20194;-68
2022/02/25 09:20:01;;;;;;;1.77;1.67;;;18.40;64.60;;;;;;5033773;28;20950;-69
2022/02/25 09:22:27;;;;;;;1.10;0.93;;;18.50;63.30;;;;;;5034131;28;20166;-69
2022/02/25 09:24:53;;;;;;;0.83;0.60;;;18.50;61.40;;;;;;5033731;28;20404;-68
2022/02/25 09:27:19;;;;;;;1.93;1.33;;;18.40;62.90;;;;;;5032692;28;20174;-68
2022/02/25 09:29:44;;;;;;;1.17;0.60;;;18.00;62.30;;;;;;5034021;28;20164;-68
2022/02/25 09:32:10;;;;;;;1.40;1.30;;;17.90;62.90;;;;;;5041302;28;20470;-69
2022/02/25 09:34:36;;;;;;;2.57;1.40;;;18.10;63.20;;;;;;5043003;28;20587;-69
2022/02/25 09:37:04;;;;;;;1.73;1.07;;;18.40;61.50;;;;;;5040859;28;20286;-67
2022/02/25 09:39:30;;;;;;;1.10;1.00;;;18.40;62.10;;;;;;5043310;28;20387;-68
2022/02/25 09:41:56;;;;;;;1.53;1.30;;;18.90;61.30;;;;;;5041825;28;20892;-67
2022/02/25 09:44:26;;;;;;;2.13;1.10;;;19.40;61.30;;;;;;5041844;28;20455;-68
2022/02/25 09:46:52;;;;;;;0.70;0.70;;;19.70;59.30;;;;;;5043800;28;20384;-67
2022/02/25 09:49:18;;;;;;;1.40;0.80;;;19.60;59.00;;;;;;5042444;28;20390;-68
2022/02/25 09:51:48;;;;;;;0.60;0.60;;;19.40;59.10;;;;;;5042785;28;20170;-67
2022/02/25 09:54:18;;;;;;;1.10;1.00;;;19.50;58.80;;;;;;5040237;28;20433;-67
2022/02/25 09:56:48;;;;;;;2.10;1.03;;;19.70;58.00;;;;;;5042554;28;20452;-65
2022/02/25 09:59:17;;;;;;;2.80;1.00;;;19.10;57.10;;;;;;5041065;28;20523;-67
2022/02/25 10:01:44;;;;;;;2.23;0.70;;;18.70;58.30;;;;;;5041033;28;20409;-66
2022/02/25 10:04:20;;;;;;;0.90;0.70;;;17.90;58.30;;;;;;5040377;28;20415;-68
2022/02/25 10:06:46;;;;;;;1.80;0.70;;;16.70;58.00;;;;;;5043039;28;20916;-66
2022/02/25 10:09:34;;;;;;;1.70;1.27;;;15.80;59.00;;;;;;5039469;28;20814;-66
2022/02/25 10:12:11;;;;;;;3.60;1.43;;;14.50;61.70;;;;;;5035592;28;20427;-67
2022/02/25 10:14:45;;;;;;;2.00;1.00;;;13.90;61.10;;;;;;5033177;28;20783;-67
2022/02/25 10:17:13;;;;;;;1.10;0.70;;;13.90;62.20;;;;;;5033788;28;20391;-66
2022/02/25 10:19:39;;;;;;;1.83;1.43;;;13.60;62.50;;;;;;5035059;28;20400;-70
2022/02/25 10:22:18;;;;;;;1.30;1.13;;;13.00;63.70;;;;;;5033168;28;20447;-65
2022/02/25 10:25:02;;;;;;;0.70;0.60;;;12.30;66.10;;;;;;5032639;28;20412;-65
2022/02/25 10:27:39;;;;;;;1.47;1.00;;;12.30;67.10;;;;;;5031815;28;20411;-65
2022/02/25 10:30:13;;;;;;;2.77;1.30;;;12.70;65.40;;;;;;5033329;28;20781;-65
2022/02/25 10:32:48;;;;;;;1.17;0.70;;;12.80;64.40;;;;;;5031979;28;20411;-65
2022/02/25 10:35:40;;;;;;;0.87;0.77;;;12.90;64.30;;;;;;5032495;28;20448;-66
2022/02/25 10:38:08;;;;;;;1.00;1.00;;;12.40;64.90;;;;;;5033131;28;20433;-64
2022/02/25 10:40:37;;;;;;;12.97;1.27;;;12.10;65.60;;;;;;5032984;28;20401;-65
2022/02/25 10:43:17;;;;;;;1.83;1.07;;;12.30;66.10;;;;;;5031641;28;20489;-63
2022/02/25 10:45:44;;;;;;;0.70;0.60;;;12.70;65.90;;;;;;5032875;28;20454;-66
2022/02/25 10:48:15;;;;;;;0.87;0.77;;;13.40;65.50;;;;;;5032981;28;20407;-64
2022/02/25 10:50:45;;;;;;;3.03;0.80;;;14.00;64.40;;;;;;5032825;28;20409;-65
2022/02/25 10:53:11;;;;;;;2.80;0.67;;;14.20;62.10;;;;;;5032346;28;20411;-65
2022/02/25 10:55:37;;;;;;;1.60;0.60;;;14.20;60.80;;;;;;5032315;28;20452;-63
2022/02/25 10:58:03;;;;;;;1.87;1.20;;;13.50;61.70;;;;;;5032798;28;20410;-65
2022/02/25 11:00:29;;;;;;;3.30;0.87;;;12.90;63.40;;;;;;5031405;28;20493;-66
2022/02/25 11:02:59;;;;;;;1.13;0.70;;;12.40;64.70;;;;;;5032805;28;20421;-64
2022/02/25 11:05:27;;;;;;;1.00;0.83;;;12.30;66.80;;;;;;5032291;28;20571;-63
2022/02/25 11:07:55;;;;;;;0.67;0.57;;;12.20;65.30;;;;;;5032288;28;20424;-62
2022/02/25 11:10:24;;;;;;;0.40;0.40;;;12.10;66.00;;;;;;5030419;28;20808;-65
2022/02/25 11:12:50;;;;;;;2.07;1.70;;;11.70;66.50;;;;;;5030493;28;20783;-63
2022/02/25 11:15:22;;;;;;;0.97;0.90;;;11.30;67.60;;;;;;5030563;28;20473;-63
2022/02/25 11:17:49;;;;;;;1.50;1.40;;;11.00;68.50;;;;;;5034605;28;20753;-63
2022/02/25 11:20:25;;;;;;;1.33;0.80;;;10.50;69.60;;;;;;5036148;28;20489;-65
2022/02/25 11:22:58;;;;;;;1.93;0.80;;;10.30;71.30;;;;;;5036251;28;20489;-64
2022/02/25 11:25:25;;;;;;;0.90;0.90;;;10.50;72.50;;;;;;5036049;28;20430;-64
2022/02/25 11:27:51;;;;;;;2.27;1.10;;;10.60;72.00;;;;;;5034648;28;20439;-63
2022/02/25 11:30:30;;;;;;;0.97;0.87;;;10.50;72.60;;;;;;5034586;28;20410;-66
2022/02/25 11:33:03;;;;;;;0.70;0.70;;;10.50;71.20;;;;;;5034723;28;20488;-63
2022/02/25 11:35:31;;;;;;;1.07;0.70;;;10.40;70.30;;;;;;5034336;28;20456;-64
2022/02/25 11:38:05;;;;;;;1.70;0.50;;;10.40;69.90;;;;;;5034624;28;20528;-66
2022/02/25 11:40:47;;;;;;;1.13;0.40;;;10.40;69.60;;;;;;5034671;28;20762;-67
2022/02/25 11:43:13;;;;;;;2.57;0.77;;;10.50;70.30;;;;;;5035775;28;20447;-65
2022/02/25 11:45:57;;;;;;;0.53;0.53;;;10.60;69.00;;;;;;5036227;28;20928;-65
2022/02/25 11:48:25;;;;;;;2.13;0.70;;;10.60;68.70;;;;;;5036068;28;20176;-64
2022/02/25 11:50:54;;;;;;;0.83;0.60;;;10.70;70.80;;;;;;5036140;28;20417;-64
2022/02/25 11:53:23;;;;;;;1.53;0.70;;;10.90;69.10;;;;;;5035869;28;20812;-65
2022/02/25 11:55:50;;;;;;;1.30;0.80;;;11.10;70.40;;;;;;5036026;28;20926;-64
2022/02/25 11:58:42;;;;;;;2.00;1.07;;;11.20;68.70;;;;;;5035976;28;20403;-62
2022/02/25 12:01:18;;;;;;;0.83;0.83;;;11.30;68.90;;;;;;5036025;28;20410;-64
2022/02/25 12:04:02;;;;;;;0.83;0.60;;;11.30;66.50;;;;;;5050652;28;20491;-64
2022/02/25 12:06:29;;;;;;;0.60;0.57;;;11.10;67.80;;;;;;5035774;28;20398;-62
2022/02/25 12:08:58;;;;;;;2.00;0.33;;;11.00;68.50;;;;;;5035709;28;20445;-64
2022/02/25 12:11:33;;;;;;;3.23;0.70;;;10.90;68.70;;;;;;5035764;28;20404;-62
2022/02/25 12:14:00;;;;;;;2.70;0.67;;;10.80;69.80;;;;;;5035484;28;20914;-64
2022/02/25 12:16:29;;;;;;;3.20;0.90;;;10.60;68.30;;;;;;5035806;28;20821;-63
2022/02/25 12:19:07;;;;;;;0.67;0.67;;;10.50;69.60;;;;;;5035719;28;20464;-66
2022/02/25 12:21:41;;;;;;;2.10;1.03;;;10.50;68.60;;;;;;5035495;28;20405;-64
2022/02/25 12:24:14;;;;;;;2.60;0.70;;;10.40;68.10;;;;;;5035027;28;20451;-64
2022/02/25 12:26:41;;;;;;;0.85;0.50;;;10.20;67.70;;;;;;5035556;28;20182;-63
2022/02/25 12:29:18;;;;;;;0.70;0.70;;;10.20;68.70;;;;;;5034322;28;20190;-64
2022/02/25 12:31:48;;;;;;;2.15;1.13;;;10.10;69.60;;;;;;5034981;28;20415;-64
2022/02/25 12:34:22;;;;;;;0.90;0.80;;;9.90;71.50;;;;;;5034663;28;20186;-64
2022/02/25 12:36:51;;;;;;;0.85;0.60;;;9.80;71.00;;;;;;5034991;28;20281;-65
2022/02/25 12:39:31;;;;;;;0.63;0.55;;;9.70;70.30;;;;;;5035096;28;20175;-65
2022/02/25 12:42:00;;;;;;;2.92;1.08;;;9.70;71.90;;;;;;5035098;28;20254;-62
2022/02/25 12:44:30;;;;;;;2.35;1.13;;;9.80;72.90;;;;;;5034596;28;20186;-64
2022/02/25 12:47:05;;;;;;;0.50;0.50;;;9.90;71.40;;;;;;5035146;28;20176;-64
2022/02/25 12:49:32;;;;;;;2.63;0.80;;;10.00;72.00;;;;;;5034845;28;20170;-63
2022/02/25 12:52:04;;;;;;;1.60;0.52;;;9.90;72.60;;;;;;5035047;28;20520;-62
2022/02/25 12:54:32;;;;;;;2.10;1.02;;;9.90;72.50;;;;;;5034737;28;20665;-64
2022/02/25 12:57:00;;;;;;;0.88;0.63;;;9.80;75.00;;;;;;5034940;28;20579;-65
2022/02/25 12:59:39;;;;;;;0.70;0.50;;;9.80;74.40;;;;;;5034581;28;20173;-63